Time;durP1;ratioP1;P1;durP2;ratioP2;P2;SDS_P1;SDS_P2;PMS_P1;PMS_P2;Temp;Humidity;BMP_temperature;BMP_pressure;BME280_temperature;BME280_humidity;BME280_pressure;Samples;Min_cycle;Max_cycle;Signal;HPM_P1;HPM_P2
2023/06/23 00:01:20;;;;;;;12.00;10.77;;;;;;;;;;5074936;28;20138;-59
2023/06/23 00:03:47;;;;;;;16.35;12.43;;;;;;;;;;5062073;28;20041;-59
2023/06/23 00:06:14;;;;;;;14.48;11.85;;;;;;;;;;5078095;28;20089;-59
2023/06/23 00:08:41;;;;;;;12.55;11.15;;;;;;;;;;5076671;28;20058;-59
2023/06/23 00:11:08;;;;;;;14.18;12.48;;;;;;;;;;5072757;28;20515;-59
2023/06/23 00:13:34;;;;;;;12.80;11.55;;;;;;;;;;5074695;28;20096;-59
2023/06/23 00:16:04;;;;;;;16.90;13.50;;;;;;;;;;5079528;28;20051;-59
2023/06/23 00:18:31;;;;;;;15.85;12.55;;;;;;;;;;5071622;28;20041;-59
2023/06/23 00:20:57;;;;;;;16.02;13.27;;;;;;;;;;5069838;28;20283;-59
2023/06/23 00:23:23;;;;;;;14.60;12.52;;;;;;;;;;5073551;28;20044;-59
2023/06/23 00:25:49;;;;;;;18.83;13.98;;;;;;;;;;5078523;28;20040;-59
2023/06/23 00:28:15;;;;;;;14.43;12.95;;;;;;;;;;5075759;28;20040;-59
2023/06/23 00:30:42;;;;;;;15.88;14.07;;;;;;;;;;5104318;27;20056;-60
2023/06/23 00:33:08;;;;;;;17.02;13.95;;;;;;;;;;5073067;28;20488;-59
2023/06/23 00:35:34;;;;;;;21.50;16.85;;;;;;;;;;5069501;28;20032;-60
2023/06/23 00:38:00;;;;;;;18.10;14.63;;;;;;;;;;5103662;27;20443;-59
2023/06/23 00:40:26;;;;;;;16.48;14.23;;;;;;;;;;5069792;28;20037;-59
2023/06/23 00:42:53;;;;;;;17.58;14.25;;;;;;;;;;5053026;28;20586;-59
2023/06/23 00:45:19;;;;;;;14.77;13.18;;;;;;;;;;5073569;28;20052;-60
2023/06/23 00:47:45;;;;;;;15.68;14.07;;;;;;;;;;5071097;28;20051;-60
2023/06/23 00:50:17;;;;;;;20.27;13.98;;;;;;;;;;5067432;28;20063;-59
2023/06/23 00:52:53;;;;;;;22.03;14.47;;;;;;;;;;5071384;28;20094;-60
2023/06/23 00:55:20;;;;;;;16.05;13.27;;;;;;;;;;5074035;28;20798;-60
2023/06/23 00:57:47;;;;;;;14.63;13.05;;;;;;;;;;5066376;28;20033;-59
2023/06/23 01:00:17;;;;;;;15.43;13.50;;;;;;;;;;5069324;28;20072;-59
2023/06/23 01:02:43;;;;;;;15.52;13.65;;;;;;;;;;5072892;28;20040;-59
2023/06/23 01:05:09;;;;;;;15.63;13.65;;;;;;;;;;5071416;28;20476;-60
2023/06/23 01:07:41;;;;;;;16.10;13.80;;;;;;;;;;5069470;28;20126;-59
2023/06/23 01:10:15;;;;;;;14.10;12.65;;;;;;;;;;5087499;28;20552;-59
2023/06/23 01:12:44;;;;;;;17.15;13.48;;;;;;;;;;5072861;28;20028;-59
2023/06/23 01:15:17;;;;;;;18.88;13.73;;;;;;;;;;5085114;28;20530;-59
2023/06/23 01:17:49;;;;;;;17.58;13.88;;;;;;;;;;5073025;28;20128;-59
2023/06/23 01:20:24;;;;;;;17.52;14.57;;;;;;;;;;5070241;28;20040;-60
2023/06/23 01:22:54;;;;;;;16.38;12.75;;;;;;;;;;5069078;28;20040;-60
2023/06/23 01:25:23;;;;;;;17.75;15.85;;;;;;;;;;5074832;28;20480;-60
2023/06/23 01:27:58;;;;;;;18.38;14.20;;;;;;;;;;5068849;28;20059;-60
2023/06/23 01:30:27;;;;;;;16.77;14.55;;;;;;;;;;5072566;28;20088;-60
2023/06/23 01:32:57;;;;;;;17.23;15.20;;;;;;;;;;5076732;28;20078;-60
2023/06/23 01:35:26;;;;;;;16.13;13.88;;;;;;;;;;5073581;28;20064;-58
2023/06/23 01:37:57;;;;;;;17.33;14.23;;;;;;;;;;5070743;28;20427;-59
2023/06/23 01:40:25;;;;;;;17.50;14.52;;;;;;;;;;5073418;28;20513;-59
2023/06/23 01:42:53;;;;;;;20.08;13.95;;;;;;;;;;5066684;28;20125;-60
2023/06/23 01:45:21;;;;;;;19.48;16.45;;;;;;;;;;5072447;28;20041;-59
2023/06/23 01:47:48;;;;;;;21.55;17.30;;;;;;;;;;5072474;28;20051;-60
2023/06/23 01:50:16;;;;;;;17.58;15.82;;;;;;;;;;5089702;28;20071;-60
2023/06/23 01:52:43;;;;;;;19.00;16.08;;;;;;;;;;5069644;28;20048;-60
2023/06/23 01:55:10;;;;;;;22.08;15.27;;;;;;;;;;5069915;28;20032;-60
2023/06/23 01:57:38;;;;;;;19.60;15.50;;;;;;;;;;5078593;28;20112;-60
2023/06/23 02:00:05;;;;;;;15.68;14.10;;;;;;;;;;5073005;28;20036;-60
2023/06/23 02:02:32;;;;;;;19.50;14.93;;;;;;;;;;5071522;28;20076;-59
2023/06/23 02:04:58;;;;;;;18.23;15.45;;;;;;;;;;5068540;28;20064;-59
2023/06/23 02:07:26;;;;;;;19.08;15.40;;;;;;;;;;5078911;28;20480;-60
2023/06/23 02:09:52;;;;;;;15.50;13.63;;;;;;;;;;5069666;28;20044;-59
2023/06/23 02:12:19;;;;;;;19.63;14.80;;;;;;;;;;5069624;28;20048;-59
2023/06/23 02:14:46;;;;;;;15.98;14.02;;;;;;;;;;5103080;27;20033;-59
2023/06/23 02:17:14;;;;;;;16.83;13.88;;;;;;;;;;5077992;28;20051;-59
2023/06/23 02:19:42;;;;;;;19.55;15.20;;;;;;;;;;5070555;28;20044;-59
2023/06/23 02:22:11;;;;;;;18.75;16.65;;;;;;;;;;5070574;28;20041;-59
2023/06/23 02:24:39;;;;;;;21.65;18.35;;;;;;;;;;5069769;28;20140;-59
2023/06/23 02:27:06;;;;;;;18.70;16.70;;;;;;;;;;5070663;28;20052;-59
2023/06/23 02:29:34;;;;;;;21.25;17.13;;;;;;;;;;5071670;28;20063;-59
2023/06/23 02:32:01;;;;;;;25.05;18.15;;;;;;;;;;5071186;28;20064;-59
2023/06/23 02:34:27;;;;;;;29.02;19.13;;;;;;;;;;5073767;28;20091;-60
2023/06/23 02:36:55;;;;;;;21.15;19.00;;;;;;;;;;5072329;28;20044;-59
2023/06/23 02:39:22;;;;;;;23.67;19.08;;;;;;;;;;5073280;28;20032;-59
2023/06/23 02:41:52;;;;;;;23.58;20.67;;;;;;;;;;5068211;28;20052;-59
2023/06/23 02:44:21;;;;;;;23.15;20.63;;;;;;;;;;5103856;27;20040;-59
2023/06/23 02:46:53;;;;;;;23.88;21.15;;;;;;;;;;5073196;28;20044;-59
2023/06/23 02:49:22;;;;;;;25.08;22.17;;;;;;;;;;5069728;28;20376;-59
2023/06/23 02:51:51;;;;;;;26.20;23.17;;;;;;;;;;5076115;28;20433;-59
2023/06/23 02:54:18;;;;;;;24.08;21.63;;;;;;;;;;5072411;28;20043;-59
2023/06/23 03:02:56;;;;;;;22.95;20.17;;;;;;;;;;5068777;28;20086;-59
2023/06/23 03:05:22;;;;;;;24.05;18.75;;;;;;;;;;5067933;28;20114;-59
2023/06/23 03:07:52;;;;;;;23.45;19.70;;;;;;;;;;5072293;28;20123;-59
2023/06/23 03:10:18;;;;;;;23.30;19.13;;;;;;;;;;5070449;28;20040;-59
2023/06/23 03:12:45;;;;;;;21.60;18.77;;;;;;;;;;5073477;28;20479;-59
2023/06/23 03:15:12;;;;;;;20.38;17.88;;;;;;;;;;5065127;28;20064;-60
2023/06/23 03:17:39;;;;;;;25.15;19.25;;;;;;;;;;5084445;28;20051;-59
2023/06/23 03:20:18;;;;;;;20.60;17.58;;;;;;;;;;5093592;28;20036;-60
2023/06/23 03:22:46;;;;;;;18.92;16.92;;;;;;;;;;5072422;28;20032;-59
2023/06/23 03:25:15;;;;;;;22.98;17.33;;;;;;;;;;5070151;28;20028;-60
2023/06/23 03:27:42;;;;;;;21.00;17.88;;;;;;;;;;5070506;28;20076;-59
2023/06/23 03:30:31;;;;;;;20.40;16.63;;;;;;;;;;5067785;28;20114;-59
2023/06/23 03:33:01;;;;;;;21.95;16.63;;;;;;;;;;5070691;28;20056;-60
2023/06/23 03:35:29;;;;;;;20.85;16.33;;;;;;;;;;5066003;28;20079;-59
2023/06/23 03:37:59;;;;;;;21.15;16.00;;;;;;;;;;5070578;28;20123;-59
2023/06/23 03:40:26;;;;;;;17.77;15.55;;;;;;;;;;5066644;28;20111;-59
2023/06/23 03:42:58;;;;;;;19.63;15.45;;;;;;;;;;5069738;28;20052;-59
2023/06/23 03:45:24;;;;;;;;;;;;;;;;;;5074772;28;20503;-59
2023/06/23 03:47:53;;;;;;;24.17;15.82;;;;;;;;;;5067227;28;19950;-59
2023/06/23 03:50:21;;;;;;;19.33;15.88;;;;;;;;;;5067391;28;20047;-59
2023/06/23 03:52:48;;;;;;;18.42;15.55;;;;;;;;;;5065610;28;20051;-59
2023/06/23 03:55:16;;;;;;;17.08;15.20;;;;;;;;;;5071905;28;20115;-59
2023/06/23 03:57:44;;;;;;;18.83;13.90;;;;;;;;;;5065930;28;20398;-59
2023/06/23 04:00:11;;;;;;;19.25;14.57;;;;;;;;;;5066846;28;20040;-59
2023/06/23 04:02:38;;;;;;;20.48;14.88;;;;;;;;;;5049214;28;20036;-59
2023/06/23 04:05:05;;;;;;;17.27;13.98;;;;;;;;;;5067832;28;20040;-59
2023/06/23 04:07:31;;;;;;;15.85;13.88;;;;;;;;;;5068027;28;20052;-59
2023/06/23 04:09:59;;;;;;;17.90;13.98;;;;;;;;;;5066806;28;20480;-60
2023/06/23 04:12:26;;;;;;;19.35;14.30;;;;;;;;;;5064948;28;20060;-59
2023/06/23 04:14:53;;;;;;;14.35;12.50;;;;;;;;;;5066943;28;20182;-58
2023/06/23 04:17:21;;;;;;;20.38;13.25;;;;;;;;;;5064338;28;20044;-59
2023/06/23 04:19:49;;;;;;;18.08;12.45;;;;;;;;;;5066614;28;20040;-59
2023/06/23 04:22:18;;;;;;;17.85;12.00;;;;;;;;;;5064433;28;20040;-59
2023/06/23 04:24:46;;;;;;;14.50;12.25;;;;;;;;;;5070384;28;20082;-60
2023/06/23 04:27:13;;;;;;;15.85;12.45;;;;;;;;;;5068895;28;20535;-59
2023/06/23 04:29:41;;;;;;;15.93;10.93;;;;;;;;;;5070051;28;20040;-59
2023/06/23 04:32:09;;;;;;;15.77;12.80;;;;;;;;;;5068268;28;20480;-59
2023/06/23 04:34:35;;;;;;;18.48;13.23;;;;;;;;;;5067585;28;20040;-59
2023/06/23 04:37:05;;;;;;;15.30;11.13;;;;;;;;;;5066793;28;20047;-59
2023/06/23 04:39:36;;;;;;;16.23;12.43;;;;;;;;;;5070371;28;20055;-59
2023/06/23 04:42:04;;;;;;;19.70;12.70;;;;;;;;;;5070965;28;20545;-59
2023/06/23 04:44:33;;;;;;;16.85;11.65;;;;;;;;;;5070860;28;20049;-59
2023/06/23 04:47:02;;;;;;;16.50;11.57;;;;;;;;;;5074149;28;20485;-59
2023/06/23 04:49:29;;;;;;;13.30;11.93;;;;;;;;;;5069884;28;20053;-59
2023/06/23 04:51:57;;;;;;;13.85;11.07;;;;;;;;;;5072432;28;20487;-59
2023/06/23 04:54:26;;;;;;;13.95;10.50;;;;;;;;;;5070566;28;20059;-59
2023/06/23 04:57:00;;;;;;;14.90;11.38;;;;;;;;;;5053714;28;20408;-59
2023/06/23 04:59:27;;;;;;;15.50;11.30;;;;;;;;;;5072785;28;20044;-59
2023/06/23 05:01:54;;;;;;;19.02;12.32;;;;;;;;;;5067929;28;20043;-59
2023/06/23 05:04:21;;;;;;;13.07;11.45;;;;;;;;;;5070115;28;20085;-60
2023/06/23 05:06:47;;;;;;;13.90;11.43;;;;;;;;;;5073112;28;20044;-59
2023/06/23 05:09:14;;;;;;;12.65;10.77;;;;;;;;;;5069778;28;20401;-59
2023/06/23 05:11:42;;;;;;;18.17;11.32;;;;;;;;;;5068203;28;20458;-59
2023/06/23 05:14:08;;;;;;;13.88;10.93;;;;;;;;;;5069262;28;20041;-60
2023/06/23 05:16:35;;;;;;;15.20;11.98;;;;;;;;;;5033667;28;20047;-59
2023/06/23 05:19:01;;;;;;;12.63;10.38;;;;;;;;;;5069330;28;20041;-59
2023/06/23 05:21:29;;;;;;;13.75;10.35;;;;;;;;;;5066804;28;20480;-60
2023/06/23 05:23:56;;;;;;;15.43;10.82;;;;;;;;;;5068129;28;20122;-60
2023/06/23 05:26:24;;;;;;;13.77;10.50;;;;;;;;;;5062073;28;20085;-60
2023/06/23 05:28:53;;;;;;;13.63;10.02;;;;;;;;;;5064707;28;20036;-59
2023/06/23 05:31:20;;;;;;;12.75;9.38;;;;;;;;;;5066641;28;20049;-59
2023/06/23 05:33:47;;;;;;;13.63;9.98;;;;;;;;;;5072866;28;20075;-60
2023/06/23 05:36:14;;;;;;;12.15;8.98;;;;;;;;;;5069534;28;20457;-60
2023/06/23 05:38:42;;;;;;;11.02;8.80;;;;;;;;;;5068436;28;20129;-60
2023/06/23 05:41:09;;;;;;;10.85;8.77;;;;;;;;;;5065360;28;20067;-59
2023/06/23 05:43:35;;;;;;;12.35;8.27;;;;;;;;;;5067784;28;20072;-63
2023/06/23 05:46:03;;;;;;;11.00;8.43;;;;;;;;;;5070320;28;20048;-59
2023/06/23 05:48:43;;;;;;;12.00;8.95;;;;;;;;;;5066258;28;20051;-60
2023/06/23 05:51:12;;;;;;;12.98;8.70;;;;;;;;;;5070009;28;20040;-60
2023/06/23 05:53:40;;;;;;;9.80;7.25;;;;;;;;;;5070820;28;20422;-60
2023/06/23 05:56:06;;;;;;;11.95;8.57;;;;;;;;;;5067400;28;20555;-60
2023/06/23 05:58:35;;;;;;;12.27;9.15;;;20.10;94.70;;;;;;5066604;28;20538;-61
2023/06/23 06:01:04;;;;;;;9.77;7.43;;;;;;;;;;5069028;28;20507;-61
2023/06/23 06:03:40;;;;;;;13.65;8.48;;;;;;;;;;5077730;28;20419;-61
2023/06/23 06:06:07;;;;;;;12.98;8.88;;;;;;;;;;5069560;28;20040;-60
2023/06/23 06:08:34;;;;;;;15.38;8.88;;;;;;;;;;5063492;28;20492;-61
2023/06/23 06:11:02;;;;;;;12.25;9.13;;;;;;;;;;5066245;28;20447;-60
2023/06/23 06:13:30;;;;;;;10.00;9.00;;;;;;;;;;5077051;28;20055;-60
2023/06/23 06:15:56;;;;;;;14.07;9.68;;;;;;;;;;5070376;28;20034;-60
2023/06/23 06:18:24;;;;;;;12.18;9.45;;;;;;;;;;5069183;28;20633;-60
2023/06/23 06:20:51;;;;;;;17.92;8.88;;;;;;;;;;5067493;28;20072;-61
2023/06/23 06:23:17;;;;;;;10.35;8.38;;;;;;;;;;5062670;28;20044;-60
2023/06/23 06:25:44;;;;;;;12.38;8.43;;;;;;;;;;5068336;28;20444;-61
2023/06/23 06:28:12;;;;;;;11.60;8.95;;;;;;;;;;5069883;28;20119;-60
2023/06/23 06:30:40;;;;;;;11.48;8.60;;;;;;;;;;5070832;28;20055;-61
2023/06/23 06:33:07;;;;;;;9.65;6.85;;;;;;;;;;5082498;28;20044;-60
2023/06/23 06:35:37;;;;;;;14.25;8.90;;;19.20;99.90;;;;;;5068036;28;20040;-60
2023/06/23 06:38:03;;;;;;;9.45;7.78;;;;;;;;;;5071606;28;20076;-61
2023/06/23 06:40:30;;;;;;;9.95;7.68;;;;;;;;;;5098634;28;20040;-60
2023/06/23 06:42:57;;;;;;;12.18;8.52;;;;;;;;;;5069326;28;20054;-60
2023/06/23 06:45:23;;;;;;;10.60;6.90;;;;;;;;;;5068008;28;20045;-60
2023/06/23 06:47:50;;;;;;;9.40;7.07;;;;;;;;;;5072440;28;20040;-60
2023/06/23 06:50:17;;;;;;;9.80;5.80;;;;;;;;;;5072056;28;20472;-60
2023/06/23 06:52:45;;;;;;;10.98;6.78;;;;;;;;;;5066182;28;20043;-59
2023/06/23 06:55:18;;;;;;;9.00;7.30;;;;;;;;;;5067312;28;20070;-60
2023/06/23 06:57:46;;;;;;;9.25;6.65;;;;;;;;;;5072022;28;20107;-59
2023/06/23 07:00:13;;;;;;;8.65;7.47;;;;;;;;;;5064031;28;20047;-60
2023/06/23 07:02:40;;;;;;;13.35;7.60;;;;;;;;;;5063716;28;20032;-60
2023/06/23 07:05:06;;;;;;;11.75;8.65;;;;;;;;;;5067507;28;20086;-60
2023/06/23 07:07:32;;;;;;;9.98;8.15;;;;;;;;;;5069082;28;20071;-60
2023/06/23 07:09:58;;;;;;;11.82;8.18;;;;;;;;;;5066770;28;20042;-60
2023/06/23 07:12:25;;;;;;;9.85;7.65;;;;;;;;;;5064194;28;20041;-60
2023/06/23 07:14:51;;;;;;;9.80;7.78;;;;;;;;;;5062433;28;20072;-60
2023/06/23 07:17:18;;;;;;;13.40;7.80;;;;;;;;;;5070004;28;20496;-60
2023/06/23 07:19:44;;;;;;;9.63;7.57;;;;;;;;;;5065680;28;20356;-60
2023/06/23 07:22:10;;;;;;;9.13;7.43;;;;;;;;;;5070566;28;20397;-60
2023/06/23 07:24:37;;;;;;;9.20;7.68;;;;;;;;;;5065876;28;20045;-60
2023/06/23 07:27:03;;;;;;;8.88;7.00;;;;;;;;;;5063251;28;20060;-60
2023/06/23 07:29:29;;;;;;;14.00;8.05;;;;;;;;;;5063123;28;20443;-60
2023/06/23 07:31:55;;;;;;;9.55;6.28;;;;;;;;;;5077855;28;20113;-60
2023/06/23 07:34:21;;;;;;;11.40;6.68;;;;;;;;;;5073531;28;20044;-60
2023/06/23 07:36:47;;;;;;;9.65;5.93;;;;;;;;;;5058861;28;20041;-60
2023/06/23 07:39:14;;;;;;;10.02;6.60;;;;;;;;;;5064855;28;20135;-60
2023/06/23 07:41:40;;;;;;;9.60;7.40;;;;;;;;;;5072335;28;20491;-60
2023/06/23 07:44:06;;;;;;;12.50;6.43;;;;;;;;;;5069921;28;20294;-60
2023/06/23 07:46:34;;;;;;;9.50;6.72;;;;;;;;;;5068230;28;20463;-60
2023/06/23 07:49:00;;;;;;;11.07;6.45;;;;;;;;;;5065194;28;20425;-60
2023/06/23 07:51:26;;;;;;;8.27;6.18;;;;;;;;;;5066726;28;20389;-60
2023/06/23 07:53:53;;;;;;;8.02;5.95;;;;;;;;;;5076743;28;20348;-60
2023/06/23 07:56:19;;;;;;;9.32;6.18;;;;;;;;;;5068697;28;20032;-60
2023/06/23 07:58:45;;;;;;;10.52;6.50;;;;;;;;;;5065286;28;20052;-60
2023/06/23 08:01:12;;;;;;;7.78;5.13;;;19.30;99.90;;;;;;5071994;28;20583;-60
2023/06/23 08:03:38;;;;;;;9.35;6.43;;;20.80;99.90;;;;;;5071091;28;20418;-60
2023/06/23 08:06:04;;;;;;;8.48;5.95;;;20.80;99.90;;;;;;5071565;28;20124;-60
2023/06/23 08:08:30;;;;;;;8.02;5.80;;;20.90;99.90;;;;;;5071581;28;20668;-60
2023/06/23 08:10:55;;;;;;;8.43;5.05;;;20.90;99.90;;;;;;5070914;28;20392;-60
2023/06/23 08:13:21;;;;;;;6.82;5.50;;;21.00;99.90;;;;;;5065962;28;20518;-60
2023/06/23 08:15:47;;;;;;;9.82;5.85;;;21.00;99.90;;;;;;5069098;28;20036;-60
2023/06/23 08:18:13;;;;;;;5.03;4.00;;;21.00;99.90;;;;;;5068217;28;20559;-60
2023/06/23 08:20:39;;;;;;;7.15;5.20;;;21.10;99.90;;;;;;5069755;28;20044;-60
2023/06/23 08:23:05;;;;;;;6.63;4.78;;;21.20;99.90;;;;;;5070436;28;20040;-60
2023/06/23 08:25:30;;;;;;;7.40;5.00;;;21.20;99.90;;;;;;5073737;28;20043;-61
2023/06/23 08:27:56;;;;;;;7.35;4.43;;;21.20;99.90;;;;;;5070016;28;20032;-60
2023/06/23 08:30:28;;;;;;;8.40;4.43;;;21.20;99.90;;;;;;5067300;28;20131;-60
2023/06/23 08:32:55;;;;;;;5.55;3.60;;;21.30;99.90;;;;;;5086409;28;20808;-60
2023/06/23 08:35:22;;;;;;;6.40;3.83;;;21.30;99.90;;;;;;5073665;28;20187;-61
2023/06/23 08:37:48;;;;;;;5.80;4.55;;;;;;;;;;5070684;28;20075;-61
2023/06/23 08:40:15;;;;;;;6.20;4.10;;;;;;;;;;5069722;28;20523;-60
2023/06/23 08:42:41;;;;;;;6.85;4.53;;;;;;;;;;5068635;28;20040;-61
2023/06/23 08:45:08;;;;;;;5.18;3.80;;;;;;;;;;5066178;28;20072;-61
2023/06/23 08:47:36;;;;;;;8.07;4.03;;;;;;;;;;5067093;28;20114;-60
2023/06/23 08:50:02;;;;;;;6.63;3.88;;;;;;;;;;5072425;28;20526;-61
2023/06/23 08:52:29;;;;;;;6.10;4.47;;;;;;;;;;5069653;28;20420;-61
2023/06/23 08:54:55;;;;;;;5.45;4.18;;;;;;;;;;5076803;28;20040;-61
2023/06/23 08:57:21;;;;;;;7.55;4.47;;;;;;;;;;5079437;28;20128;-61
2023/06/23 08:59:48;;;;;;;5.65;4.63;;;;;;;;;;5074191;28;20055;-61
2023/06/23 09:02:14;;;;;;;5.13;3.83;;;;;;;;;;5069802;28;20047;-61
2023/06/23 09:04:40;;;;;;;8.73;5.10;;;;;;;;;;5075528;28;20122;-61
2023/06/23 09:07:06;;;;;;;6.03;4.43;;;21.40;99.90;;;;;;5078404;28;20136;-61
2023/06/23 09:09:32;;;;;;;8.18;5.15;;;22.10;99.40;;;;;;5069143;28;20131;-61
2023/06/23 09:11:59;;;;;;;6.53;4.82;;;22.10;99.20;;;;;;5069872;28;20117;-61
2023/06/23 09:14:35;;;;;;;8.25;4.65;;;22.20;99.20;;;;;;5083144;28;20047;-62
2023/06/23 09:17:01;;;;;;;6.00;4.75;;;22.30;98.80;;;;;;5067999;28;20048;-62
2023/06/23 09:19:27;;;;;;;6.05;4.60;;;22.30;98.80;;;;;;5072499;28;20043;-61
2023/06/23 09:21:54;;;;;;;7.07;5.07;;;22.40;98.60;;;;;;5052535;28;20112;-61
2023/06/23 09:24:21;;;;;;;6.72;4.97;;;22.40;98.50;;;;;;5096727;28;20162;-61
2023/06/23 09:26:50;;;;;;;7.85;5.32;;;22.50;98.50;;;;;;5055509;28;20518;-61
2023/06/23 09:29:26;;;;;;;5.45;4.85;;;22.60;98.30;;;;;;5069855;28;20044;-61
2023/06/23 09:31:52;;;;;;;7.03;4.90;;;22.60;98.10;;;;;;5079056;28;20519;-61
2023/06/23 09:34:21;;;;;;;6.45;5.47;;;22.70;98.10;;;;;;5107218;27;20068;-61
2023/06/23 09:36:47;;;;;;;6.47;4.63;;;22.70;97.80;;;;;;5071373;28;20651;-61
2023/06/23 09:39:14;;;;;;;8.27;5.63;;;;;;;;;;5066518;28;20074;-61
2023/06/23 09:41:46;;;;;;;6.28;4.40;;;22.80;97.70;;;;;;5080419;28;20460;-61
2023/06/23 09:44:13;;;;;;;6.82;5.05;;;22.90;97.40;;;;;;5076003;28;20124;-61
2023/06/23 09:46:40;;;;;;;7.00;4.47;;;22.90;97.30;;;;;;5071926;28;20551;-61
2023/06/23 09:49:07;;;;;;;7.93;5.05;;;23.00;97.10;;;;;;5069273;28;20520;-61
2023/06/23 09:51:37;;;;;;;7.70;5.15;;;23.10;97.00;;;;;;5074723;28;20044;-61
2023/06/23 09:54:03;;;;;;;6.72;4.80;;;23.10;96.90;;;;;;5072413;28;20060;-61
2023/06/23 09:56:29;;;;;;;7.43;5.20;;;23.20;96.70;;;;;;5070918;28;20539;-61
2023/06/23 09:58:55;;;;;;;5.65;4.18;;;23.20;96.50;;;;;;5069141;28;20036;-61
2023/06/23 10:01:21;;;;;;;11.45;5.68;;;;;;;;;;5080154;28;20503;-61
2023/06/23 10:03:55;;;;;;;7.18;4.38;;;;;;;;;;5071725;28;20145;-61
2023/06/23 10:06:24;;;;;;;8.38;4.57;;;;;;;;;;5067936;28;20044;-61
2023/06/23 10:08:54;;;;;;;7.35;4.88;;;;;;;;;;5078855;28;20556;-61
2023/06/23 10:11:21;;;;;;;7.65;5.57;;;;;;;;;;5076006;28;20040;-61
2023/06/23 10:13:47;;;;;;;7.03;5.55;;;23.30;96.50;;;;;;5069032;28;20465;-61
2023/06/23 10:16:14;;;;;;;6.25;5.15;;;;;;;;;;5051657;28;20044;-61
2023/06/23 10:18:40;;;;;;;6.78;5.07;;;;;;;;;;5079138;28;20594;-61
2023/06/23 10:21:07;;;;;;;6.93;4.95;;;;;;;;;;5068673;28;20727;-60
2023/06/23 10:23:34;;;;;;;7.38;5.25;;;;;;;;;;5069951;28;20048;-60
2023/06/23 10:26:01;;;;;;;6.70;5.05;;;;;;;;;;5069276;28;20040;-61
2023/06/23 10:28:28;;;;;;;6.10;4.60;;;;;;;;;;5072995;28;20408;-60
2023/06/23 10:30:54;;;;;;;7.22;4.97;;;;;;;;;;5064218;28;20589;-61
2023/06/23 10:33:20;;;;;;;7.07;4.13;;;;;;;;;;5067440;28;20185;-60
2023/06/23 10:35:47;;;;;;;11.63;5.20;;;;;;;;;;5065509;28;20032;-61
2023/06/23 10:38:17;;;;;;;5.50;4.60;;;;;;;;;;5098329;27;20079;-61
2023/06/23 10:40:46;;;;;;;6.85;5.05;;;;;;;;;;5068381;28;20040;-61
2023/06/23 10:43:12;;;;;;;6.88;4.30;;;;;;;;;;5067176;28;20036;-61
2023/06/23 10:45:39;;;;;;;6.95;4.53;;;23.60;95.60;;;;;;5066277;28;20415;-61
2023/06/23 10:48:05;;;;;;;5.75;4.05;;;;;;;;;;5067146;28;20140;-61
2023/06/23 10:50:31;;;;;;;7.70;4.53;;;;;;;;;;5046437;28;20620;-60
2023/06/23 10:53:08;;;;;;;4.70;3.25;;;;;;;;;;5066822;28;20040;-61
2023/06/23 10:55:41;;;;;;;5.03;4.40;;;;;;;;;;5065589;28;20452;-61
2023/06/23 10:58:11;;;;;;;7.15;6.18;;;;;;;;;;5065777;28;20041;-61
2023/06/23 11:00:38;;;;;;;10.07;7.43;;;;;;;;;;5074217;28;20130;-61
2023/06/23 11:03:10;;;;;;;8.88;6.38;;;;;;;;;;5064906;28;20205;-61
2023/06/23 11:05:36;;;;;;;;;;;;;;;;;;5069181;28;20032;-61
2023/06/23 11:08:03;;;;;;;7.63;4.40;;;;;;;;;;5065411;28;19927;-60
2023/06/23 11:10:47;;;;;;;6.68;3.75;;;;;;;;;;5067258;28;20047;-61
2023/06/23 11:13:14;;;;;;;5.93;3.70;;;;;;;;;;5056579;28;20049;-61
2023/06/23 11:15:41;;;;;;;6.55;4.05;;;;;;;;;;5062281;28;20504;-61
2023/06/23 11:18:08;;;;;;;4.43;3.38;;;;;;;;;;5055417;28;20032;-60
2023/06/23 11:20:35;;;;;;;4.80;3.60;;;;;;;;;;5062383;28;20113;-61
2023/06/23 11:23:04;;;;;;;5.32;4.07;;;;;;;;;;5055449;28;20285;-62
2023/06/23 11:25:31;;;;;;;5.15;4.10;;;;;;;;;;5042462;28;20516;-62
2023/06/23 11:28:16;;;;;;;7.55;4.18;;;;;;;;;;5040741;28;20040;-61
2023/06/23 11:30:53;;;;;;;8.02;3.63;;;;;;;;;;5044762;28;20049;-61
2023/06/23 11:33:29;;;;;;;5.25;3.80;;;;;;;;;;5054486;28;20131;-61
2023/06/23 11:35:56;;;;;;;6.28;3.72;;;;;;;;;;5069183;28;20038;-62
2023/06/23 11:38:22;;;;;;;6.53;4.05;;;;;;;;;;5065526;28;20028;-61
2023/06/23 11:40:51;;;;;;;5.07;3.17;;;;;;;;;;5066737;28;20068;-61
2023/06/23 11:43:18;;;;;;;3.88;3.08;;;;;;;;;;5064097;28;20133;-60
2023/06/23 11:45:52;;;;;;;6.40;3.42;;;;;;;;;;5073362;28;20087;-61
2023/06/23 11:48:18;;;;;;;5.38;3.72;;;;;;;;;;5066858;28;20669;-61
2023/06/23 11:50:45;;;;;;;4.93;3.50;;;;;;;;;;5068229;28;20052;-61
2023/06/23 11:53:11;;;;;;;4.35;3.00;;;;;;;;;;5064950;28;20107;-60
2023/06/23 11:55:37;;;;;;;6.60;3.55;;;;;;;;;;5061080;28;20029;-61
2023/06/23 11:58:03;;;;;;;8.60;3.40;;;;;;;;;;5060793;28;20067;-61
2023/06/23 12:00:30;;;;;;;4.68;2.97;;;;;;;;;;5066796;28;20499;-61
2023/06/23 12:02:59;;;;;;;8.07;3.20;;;;;;;;;;5066312;28;20044;-61
2023/06/23 12:05:26;;;;;;;6.18;3.13;;;;;;;;;;5072411;28;20040;-61
2023/06/23 12:07:53;;;;;;;4.82;2.60;;;;;;;;;;5055148;28;20489;-61
2023/06/23 12:10:20;;;;;;;4.30;3.03;;;;;;;;;;5062431;28;20419;-61
2023/06/23 12:12:48;;;;;;;4.13;2.67;;;;;;;;;;5064191;28;20051;-61
2023/06/23 12:15:15;;;;;;;4.32;2.78;;;;;;;;;;5070364;28;20324;-61
2023/06/23 12:17:41;;;;;;;4.45;2.95;;;;;;;;;;5065793;28;20177;-61
2023/06/23 12:20:08;;;;;;;3.45;2.63;;;;;;;;;;5063553;28;20047;-61
2023/06/23 12:22:37;;;;;;;7.53;2.90;;;;;;;;;;5056851;28;20144;-61
2023/06/23 12:25:04;;;;;;;5.55;2.75;;;;;;;;;;5047013;28;20325;-61
2023/06/23 12:27:31;;;;;;;4.53;2.97;;;;;;;;;;5054925;28;20048;-61
2023/06/23 12:30:14;;;;;;;6.28;3.05;;;;;;;;;;5036707;28;20047;-61
2023/06/23 12:32:40;;;;;;;6.72;3.03;;;;;;;;;;5055123;28;20087;-61
2023/06/23 12:35:09;;;;;;;4.20;2.88;;;;;;;;;;5067752;28;20487;-61
2023/06/23 12:37:48;;;;;;;4.20;2.85;;;;;;;;;;5067273;28;20037;-63
2023/06/23 12:40:35;;;;;;;4.32;2.60;;;;;;;;;;5068375;28;20041;-61
2023/06/23 12:43:03;;;;;;;3.55;2.17;;;;;;;;;;5064611;28;20040;-62
2023/06/23 12:45:29;;;;;;;4.32;2.47;;;;;;;;;;5069678;28;20111;-61
2023/06/23 12:47:55;;;;;;;4.32;2.88;;;;;;;;;;5070110;28;20111;-61
2023/06/23 12:50:28;;;;;;;6.13;3.13;;;;;;;;;;5073114;28;20028;-61
2023/06/23 12:52:55;;;;;;;3.95;2.78;;;;;;;;;;5073987;28;20062;-61
2023/06/23 12:55:21;;;;;;;5.68;3.15;;;;;;;;;;5071438;28;20037;-61
2023/06/23 12:57:49;;;;;;;4.60;2.95;;;;;;;;;;5068288;28;20220;-61
2023/06/23 13:00:16;;;;;;;6.25;2.65;;;;;;;;;;5070738;28;20047;-61
2023/06/23 13:02:42;;;;;;;4.50;2.45;;;;;;;;;;5072001;28;20055;-61
2023/06/23 13:05:08;;;;;;;3.53;2.30;;;;;;;;;;5072364;28;20055;-61
2023/06/23 13:07:35;;;;;;;3.85;2.88;;;;;;;;;;5073240;28;20052;-61
2023/06/23 13:10:02;;;;;;;4.63;2.88;;;;;;;;;;5071237;28;20542;-61
2023/06/23 13:12:29;;;;;;;4.05;3.05;;;;;;;;;;5069241;28;20124;-62
2023/06/23 13:14:55;;;;;;;5.47;2.72;;;;;;;;;;5070858;28;20286;-61
2023/06/23 13:17:21;;;;;;;4.10;2.38;;;;;;;;;;5073000;28;20039;-61
2023/06/23 13:19:47;;;;;;;5.18;2.63;;;;;;;;;;5070762;28;20291;-61
2023/06/23 13:22:13;;;;;;;3.15;2.50;;;;;;;;;;5069471;28;20048;-61
2023/06/23 13:24:40;;;;;;;3.50;2.63;;;;;;;;;;5071334;28;20043;-61
2023/06/23 13:27:08;;;;;;;5.80;2.75;;;;;;;;;;5074066;28;20389;-62
2023/06/23 13:29:36;;;;;;;3.58;2.40;;;;;;;;;;5069773;28;20059;-59
2023/06/23 13:32:03;;;;;;;5.35;2.88;;;;;;;;;;5069205;28;20056;-62
2023/06/23 13:34:29;;;;;;;5.72;2.47;;;;;;;;;;5076404;28;20040;-60
2023/06/23 13:36:55;;;;;;;5.93;3.40;;;;;;;;;;5073233;28;20037;-60
2023/06/23 13:39:22;;;;;;;6.28;3.25;;;;;;;;;;5074703;28;20042;-61
2023/06/23 13:41:48;;;;;;;4.68;3.05;;;;;;;;;;5066891;28;20089;-61
2023/06/23 13:44:17;;;;;;;4.70;3.42;;;;;;;;;;5069565;28;20051;-61
2023/06/23 13:46:43;;;;;;;4.70;3.85;;;;;;;;;;5090665;28;20090;-61
2023/06/23 13:49:12;;;;;;;6.18;3.80;;;;;;;;;;5072311;28;20360;-62
2023/06/23 13:51:38;;;;;;;4.18;2.72;;;;;;;;;;5070047;28;20175;-62
2023/06/23 13:54:04;;;;;;;6.00;4.10;;;24.10;93.80;;;;;;5072815;28;20033;-62
2023/06/23 13:56:31;;;;;;;6.78;3.42;;;26.30;76.20;;;;;;5072912;28;20561;-62
2023/06/23 13:58:56;;;;;;;5.82;4.10;;;26.20;76.70;;;;;;5069409;28;20097;-62
2023/06/23 14:01:22;;;;;;;5.30;3.38;;;26.20;76.70;;;;;;5069277;28;20040;-61
2023/06/23 14:03:52;;;;;;;6.68;4.00;;;26.30;77.00;;;;;;5074730;28;20564;-61
2023/06/23 14:06:18;;;;;;;8.40;4.28;;;26.30;77.10;;;;;;5071373;28;20483;-61
2023/06/23 14:08:45;;;;;;;6.80;3.67;;;26.40;76.90;;;;;;5067604;28;20032;-61
2023/06/23 14:11:11;;;;;;;3.80;3.20;;;26.40;76.40;;;;;;5089391;28;20071;-61
2023/06/23 14:13:37;;;;;;;4.05;2.70;;;26.50;76.20;;;;;;5075333;28;20066;-61
2023/06/23 14:16:03;;;;;;;5.32;3.15;;;26.40;75.60;;;;;;5068655;28;20048;-61
2023/06/23 14:18:29;;;;;;;5.72;3.55;;;26.40;75.70;;;;;;5103387;27;20044;-61
2023/06/23 14:20:55;;;;;;;5.53;3.55;;;26.50;75.90;;;;;;5071703;28;20037;-61
2023/06/23 14:23:20;;;;;;;9.32;4.20;;;26.60;76.00;;;;;;5075268;28;20113;-60